Time;durP1;ratioP1;P1;durP2;ratioP2;P2;SDS_P1;SDS_P2;PMS_P1;PMS_P2;Temp;Humidity;BMP_temperature;BMP_pressure;BME280_temperature;BME280_humidity;BME280_pressure;Samples;Min_cycle;Max_cycle;Signal;HPM_P1;HPM_P2
2021/07/26 00:02:22;;;;;;;9.45;8.18;;;18.40;99.90;;;;;;5055608;28;20100;-72
2021/07/26 00:04:47;;;;;;;11.60;7.80;;;18.30;99.90;;;;;;5055028;28;20393;-85
2021/07/26 00:07:13;;;;;;;9.48;7.53;;;18.30;99.90;;;;;;5037623;28;20079;-85
2021/07/26 00:09:38;;;;;;;11.20;8.05;;;18.20;99.90;;;;;;5055593;28;20076;-83
2021/07/26 00:12:05;;;;;;;9.13;7.10;;;18.20;99.90;;;;;;5054668;28;20091;-78
2021/07/26 00:14:31;;;;;;;11.77;7.75;;;18.10;99.90;;;;;;5055065;28;20025;-75
2021/07/26 00:16:57;;;;;;;11.00;7.63;;;18.10;99.90;;;;;;5055436;28;20029;-77
2021/07/26 00:19:23;;;;;;;10.63;7.80;;;18.10;99.90;;;;;;5036617;28;20048;-72
2021/07/26 00:21:49;;;;;;;10.32;7.63;;;18.00;99.90;;;;;;5055483;28;20493;-70
2021/07/26 00:24:19;;;;;;;8.65;7.85;;;18.00;99.90;;;;;;5054562;28;20060;-72
2021/07/26 00:26:45;;;;;;;16.75;7.88;;;17.90;99.90;;;;;;5050429;28;20025;-71
2021/07/26 00:29:10;;;;;;;10.05;8.23;;;17.90;99.90;;;;;;5054833;28;20040;-82
2021/07/26 00:31:36;;;;;;;10.45;7.82;;;17.80;99.90;;;;;;5054470;28;20032;-72
2021/07/26 00:34:34;;;;;;;9.52;7.55;;;17.70;99.90;;;;;;5037079;28;20458;-82
2021/07/26 00:37:02;;;;;;;9.63;7.57;;;17.70;99.90;;;;;;5055164;28;20036;-79
2021/07/26 00:39:30;;;;;;;10.07;7.55;;;17.70;99.90;;;;;;5053950;28;20037;-86
2021/07/26 00:41:56;;;;;;;9.65;7.95;;;17.60;99.90;;;;;;5037090;28;20017;-84
2021/07/26 00:44:24;;;;;;;9.15;7.85;;;17.60;99.90;;;;;;5054414;28;20090;-77
2021/07/26 00:46:50;;;;;;;9.05;8.05;;;17.50;99.90;;;;;;5036119;28;20017;-74
2021/07/26 00:49:17;;;;;;;12.68;8.80;;;17.60;99.90;;;;;;5036607;28;20028;-86
2021/07/26 00:51:54;;;;;;;13.73;8.93;;;17.50;99.90;;;;;;5054754;28;20032;-71
2021/07/26 00:54:33;;;;;;;8.90;7.72;;;17.50;99.90;;;;;;5053690;28;20040;-82
2021/07/26 00:57:19;;;;;;;10.23;8.25;;;17.50;99.90;;;;;;5037007;28;20048;-72
2021/07/26 00:59:45;;;;;;;9.35;7.80;;;17.40;99.90;;;;;;5035682;28;20040;-83
2021/07/26 01:02:10;;;;;;;11.23;8.15;;;17.40;99.90;;;;;;5054141;28;20028;-76
2021/07/26 01:04:36;;;;;;;12.05;8.80;;;17.40;99.90;;;;;;5054559;28;20021;-71
2021/07/26 01:07:02;;;;;;;10.93;7.78;;;17.30;99.90;;;;;;5053759;28;20377;-71
2021/07/26 01:09:27;;;;;;;11.32;7.93;;;17.30;99.90;;;;;;5053997;28;20025;-83
2021/07/26 01:11:53;;;;;;;9.13;8.23;;;17.30;99.90;;;;;;5054494;28;20036;-76
2021/07/26 01:14:19;;;;;;;11.63;8.82;;;17.30;99.90;;;;;;5035415;28;20382;-83
2021/07/26 01:16:48;;;;;;;11.57;7.88;;;17.30;99.90;;;;;;5053721;28;20082;-75
2021/07/26 01:19:14;;;;;;;9.70;8.40;;;17.20;99.90;;;;;;5053823;28;20041;-71
2021/07/26 01:21:40;;;;;;;12.13;8.20;;;17.20;99.90;;;;;;5053676;28;20530;-71
2021/07/26 01:24:06;;;;;;;10.10;8.25;;;17.10;99.90;;;;;;5054000;28;20029;-83
2021/07/26 01:26:32;;;;;;;17.05;8.05;;;17.10;99.90;;;;;;5036021;28;20014;-80
2021/07/26 01:29:00;;;;;;;11.85;8.63;;;17.10;99.90;;;;;;5053335;28;20029;-72
2021/07/26 01:31:26;;;;;;;9.50;8.40;;;17.00;99.90;;;;;;5035728;28;20010;-86
2021/07/26 01:33:53;;;;;;;9.38;7.20;;;17.00;99.90;;;;;;5053791;28;20025;-76
2021/07/26 01:36:19;;;;;;;12.20;7.78;;;17.00;99.90;;;;;;5052901;28;20049;-82
2021/07/26 01:38:45;;;;;;;9.32;7.65;;;16.90;99.90;;;;;;5053731;28;20032;-71
2021/07/26 01:41:20;;;;;;;8.90;7.80;;;16.90;99.90;;;;;;5053444;28;20025;-70
2021/07/26 01:46:52;;;;;;;8.27;7.45;;;16.90;99.90;;;;;;5053717;28;20369;-71
2021/07/26 01:49:27;;;;;;;11.02;8.07;;;16.90;99.90;;;;;;5034908;28;20033;-76
2021/07/26 01:51:53;;;;;;;10.05;7.93;;;16.80;99.90;;;;;;5053656;28;20018;-80
2021/07/26 01:54:19;;;;;;;8.65;7.40;;;16.80;99.90;;;;;;5035259;28;20025;-84
2021/07/26 01:56:45;;;;;;;8.82;7.75;;;16.80;99.90;;;;;;5052902;28;20025;-78
2021/07/26 01:59:10;;;;;;;8.85;7.40;;;16.80;99.90;;;;;;5052999;28;20040;-80
2021/07/26 02:01:36;;;;;;;9.50;7.13;;;16.70;99.90;;;;;;5053292;28;20013;-84
2021/07/26 02:04:02;;;;;;;9.43;7.35;;;16.70;99.90;;;;;;5052698;28;20351;-71
2021/07/26 02:06:27;;;;;;;9.27;7.65;;;16.70;99.90;;;;;;5035164;28;20041;-73
2021/07/26 02:08:53;;;;;;;8.52;7.70;;;16.60;99.90;;;;;;5053244;28;20032;-74
2021/07/26 02:11:22;;;;;;;12.60;8.88;;;16.70;99.90;;;;;;5052089;28;20025;-81
2021/07/26 02:13:49;;;;;;;9.73;8.13;;;16.60;99.90;;;;;;5052389;28;20099;-77
2021/07/26 02:16:14;;;;;;;8.80;7.43;;;16.60;99.90;;;;;;5053211;28;20020;-81
2021/07/26 02:18:40;;;;;;;11.82;7.57;;;16.70;99.90;;;;;;5052283;28;20059;-71
2021/07/26 02:21:05;;;;;;;8.90;8.00;;;16.70;99.90;;;;;;5053087;28;20111;-75
2021/07/26 02:23:31;;;;;;;9.32;7.97;;;16.60;99.90;;;;;;5052535;28;20104;-76
2021/07/26 02:25:56;;;;;;;8.88;7.35;;;16.60;99.90;;;;;;5052407;28;20055;-79
2021/07/26 02:28:22;;;;;;;8.75;7.90;;;16.60;99.90;;;;;;5052639;28;20032;-77
2021/07/26 02:30:48;;;;;;;10.25;7.47;;;16.60;99.90;;;;;;5052842;28;20027;-71
2021/07/26 02:33:14;;;;;;;9.07;7.55;;;16.60;99.90;;;;;;5051930;28;20028;-73
2021/07/26 02:35:40;;;;;;;9.75;7.72;;;16.60;99.90;;;;;;5053283;28;20025;-72
2021/07/26 02:38:05;;;;;;;9.95;8.18;;;16.60;99.90;;;;;;5052152;28;20052;-73
2021/07/26 02:40:31;;;;;;;10.95;7.45;;;16.60;99.90;;;;;;5052421;28;20041;-71
2021/07/26 02:42:57;;;;;;;14.23;7.85;;;16.60;99.90;;;;;;5052676;28;20054;-87
2021/07/26 02:45:24;;;;;;;9.25;7.78;;;16.60;99.90;;;;;;5051901;28;20032;-86
2021/07/26 02:47:50;;;;;;;8.68;7.32;;;16.60;99.90;;;;;;5052997;28;20040;-76
2021/07/26 02:50:16;;;;;;;10.73;9.07;;;16.60;99.90;;;;;;5034726;28;20401;-85
2021/07/26 02:52:41;;;;;;;10.43;8.23;;;16.60;99.90;;;;;;5052368;28;20579;-78
2021/07/26 02:55:07;;;;;;;11.68;8.10;;;16.60;99.90;;;;;;5052562;28;20147;-85
2021/07/26 02:57:33;;;;;;;9.40;8.10;;;16.50;99.90;;;;;;5052698;28;20017;-72
2021/07/26 02:59:59;;;;;;;10.43;8.95;;;16.50;99.90;;;;;;5051874;28;20040;-74
2021/07/26 03:02:25;;;;;;;10.10;8.13;;;16.50;99.90;;;;;;5052325;28;20389;-77
2021/07/26 03:04:50;;;;;;;12.55;7.90;;;16.50;99.90;;;;;;5034646;28;20029;-78
2021/07/26 03:07:16;;;;;;;9.85;8.00;;;16.50;99.90;;;;;;5051673;28;20029;-83
2021/07/26 03:09:42;;;;;;;9.63;7.47;;;16.50;99.90;;;;;;5052570;28;20481;-70
2021/07/26 03:12:08;;;;;;;10.95;8.15;;;16.50;99.90;;;;;;5052144;28;20021;-70
2021/07/26 03:14:33;;;;;;;9.52;7.88;;;16.50;99.90;;;;;;5051683;28;20481;-79
2021/07/26 03:17:03;;;;;;;11.10;8.20;;;16.50;99.90;;;;;;5052295;28;20708;-75
2021/07/26 03:19:29;;;;;;;10.82;8.35;;;16.50;99.90;;;;;;5052191;28;20033;-80
2021/07/26 03:22:33;;;;;;;9.55;8.30;;;16.50;99.90;;;;;;5051811;28;20381;-74
2021/07/26 03:24:59;;;;;;;9.73;8.75;;;16.50;99.90;;;;;;5055276;28;20372;-82
2021/07/26 03:27:24;;;;;;;10.30;8.68;;;16.50;99.90;;;;;;5055422;28;20107;-81
2021/07/26 03:29:50;;;;;;;11.15;8.20;;;16.50;99.90;;;;;;5056167;28;20028;-79
2021/07/26 03:32:15;;;;;;;13.90;7.93;;;16.50;99.90;;;;;;5038012;28;20112;-73
2021/07/26 03:34:41;;;;;;;10.07;8.00;;;16.50;99.90;;;;;;5055488;28;20104;-70
2021/07/26 03:37:06;;;;;;;8.55;7.72;;;16.50;99.90;;;;;;5055953;28;20049;-76
2021/07/26 03:39:32;;;;;;;9.90;7.60;;;16.60;99.90;;;;;;5055671;28;20051;-70
2021/07/26 03:42:00;;;;;;;11.63;8.10;;;16.50;99.90;;;;;;5037441;28;20357;-71
2021/07/26 03:44:26;;;;;;;10.02;7.28;;;16.60;99.90;;;;;;5055732;28;20535;-76
2021/07/26 03:46:51;;;;;;;8.10;7.30;;;16.50;99.90;;;;;;5056048;28;20025;-76
2021/07/26 03:49:17;;;;;;;7.32;6.60;;;16.50;99.90;;;;;;5037284;28;20024;-73
2021/07/26 03:51:42;;;;;;;8.60;7.20;;;16.50;99.90;;;;;;5037988;28;20024;-74
2021/07/26 03:54:08;;;;;;;12.32;7.28;;;16.50;99.90;;;;;;5055280;28;20032;-69
2021/07/26 03:56:33;;;;;;;10.27;7.38;;;16.50;99.90;;;;;;5037295;28;20045;-75
2021/07/26 03:58:59;;;;;;;9.30;7.35;;;16.40;99.90;;;;;;5055643;28;20377;-71
2021/07/26 04:01:24;;;;;;;9.25;8.18;;;16.50;99.90;;;;;;5055412;28;20021;-79
2021/07/26 04:03:50;;;;;;;9.80;7.35;;;16.40;99.90;;;;;;5054845;28;20033;-71
2021/07/26 04:06:17;;;;;;;9.38;6.93;;;16.50;99.90;;;;;;5037500;28;20543;-79
2021/07/26 04:08:47;;;;;;;8.20;7.22;;;16.50;99.90;;;;;;5055846;28;20017;-72
2021/07/26 04:11:25;;;;;;;10.93;7.28;;;16.50;99.90;;;;;;5066366;28;20017;-81
2021/07/26 04:14:05;;;;;;;9.43;6.55;;;16.40;99.90;;;;;;5055392;28;20079;-83
2021/07/26 04:16:30;;;;;;;8.05;6.63;;;16.50;99.90;;;;;;5047226;28;20028;-71
2021/07/26 04:18:58;;;;;;;9.50;7.15;;;16.50;99.90;;;;;;5053808;28;20409;-81
2021/07/26 04:21:31;;;;;;;8.80;6.57;;;16.40;99.90;;;;;;5054945;28;20025;-69
2021/07/26 04:23:58;;;;;;;11.48;7.30;;;16.50;99.90;;;;;;5053404;28;20036;-74
2021/07/26 04:26:24;;;;;;;9.63;6.25;;;16.50;99.90;;;;;;5052018;28;20020;-72
2021/07/26 04:28:49;;;;;;;7.40;6.38;;;16.50;99.90;;;;;;5042725;28;20028;-83
2021/07/26 04:31:15;;;;;;;8.27;6.07;;;16.50;99.90;;;;;;5047979;28;20116;-70
2021/07/26 04:33:41;;;;;;;8.77;6.78;;;16.50;99.90;;;;;;5038933;28;20021;-78
2021/07/26 04:36:06;;;;;;;8.75;7.18;;;16.50;99.90;;;;;;5039814;28;20025;-73
2021/07/26 04:38:32;;;;;;;7.15;6.45;;;16.50;99.90;;;;;;5038532;28;20392;-70
2021/07/26 04:40:58;;;;;;;8.25;5.90;;;16.50;99.90;;;;;;5040592;28;20481;-72
2021/07/26 04:43:24;;;;;;;8.50;6.10;;;16.60;99.90;;;;;;5038373;28;20425;-70
2021/07/26 04:45:50;;;;;;;12.63;6.45;;;16.60;99.90;;;;;;5038886;28;20041;-73
2021/07/26 04:48:15;;;;;;;8.10;6.15;;;16.60;99.90;;;;;;5054698;28;20434;-69
2021/07/26 04:50:41;;;;;;;9.60;6.10;;;16.70;99.90;;;;;;5047648;28;20037;-73
2021/07/26 04:53:07;;;;;;;6.50;5.53;;;16.70;99.90;;;;;;5040299;28;20045;-69
2021/07/26 04:55:32;;;;;;;6.85;5.97;;;16.80;99.90;;;;;;5046585;28;20021;-73
2021/07/26 04:57:58;;;;;;;7.00;6.15;;;16.80;99.90;;;;;;5050790;28;20099;-80
2021/07/26 05:00:26;;;;;;;9.75;6.40;;;16.90;99.90;;;;;;5051575;28;20101;-75
2021/07/26 05:02:52;;;;;;;8.77;6.45;;;16.90;99.90;;;;;;5040271;28;20474;-77
2021/07/26 05:05:18;;;;;;;7.45;6.35;;;17.00;99.90;;;;;;5049439;28;20028;-77
2021/07/26 05:07:44;;;;;;;9.32;5.90;;;17.00;99.90;;;;;;5053695;28;20588;-75
2021/07/26 05:10:10;;;;;;;5.97;5.00;;;17.10;99.90;;;;;;5036888;28;20028;-77
2021/07/26 05:12:36;;;;;;;10.60;6.20;;;17.20;99.90;;;;;;5032746;28;20151;-76
2021/07/26 05:15:02;;;;;;;6.80;5.10;;;17.20;99.90;;;;;;5031122;28;20120;-72
2021/07/26 05:17:27;;;;;;;8.93;5.38;;;17.20;99.90;;;;;;5040734;28;20052;-78
2021/07/26 05:19:53;;;;;;;13.50;6.03;;;17.20;99.90;;;;;;5049418;28;20033;-73
2021/07/26 05:22:19;;;;;;;6.57;5.80;;;17.30;99.90;;;;;;5048590;28;20075;-76
2021/07/26 05:24:45;;;;;;;7.05;6.20;;;17.30;99.90;;;;;;5033475;28;20037;-78
2021/07/26 05:27:12;;;;;;;10.25;5.72;;;17.30;99.90;;;;;;5030529;28;20025;-77
2021/07/26 05:29:38;;;;;;;7.82;5.68;;;17.30;99.90;;;;;;5031854;28;20456;-77
2021/07/26 05:32:04;;;;;;;10.07;6.20;;;17.30;99.90;;;;;;5031826;28;20105;-71
2021/07/26 05:34:30;;;;;;;12.23;5.97;;;17.40;99.90;;;;;;5038087;28;20049;-78
2021/07/26 05:36:56;;;;;;;7.68;5.38;;;17.40;99.90;;;;;;5030980;28;20103;-75
2021/07/26 05:39:24;;;;;;;11.48;6.85;;;17.50;99.90;;;;;;5032384;28;20034;-72
2021/07/26 05:41:51;;;;;;;6.38;5.78;;;17.50;99.90;;;;;;5032342;28;20029;-83
2021/07/26 05:44:17;;;;;;;11.77;6.57;;;17.60;99.90;;;;;;5032863;28;20026;-72
2021/07/26 05:46:42;;;;;;;12.15;6.63;;;17.60;99.90;;;;;;5030773;28;20025;-82
2021/07/26 05:49:08;;;;;;;9.93;6.00;;;17.70;99.90;;;;;;5031820;28;20025;-71
2021/07/26 05:51:33;;;;;;;10.65;6.05;;;17.70;99.90;;;;;;5032856;28;20033;-72
2021/07/26 05:53:59;;;;;;;8.32;6.43;;;17.70;99.90;;;;;;5044026;28;20083;-74
2021/07/26 05:56:25;;;;;;;11.75;6.38;;;17.80;99.90;;;;;;5050347;28;20469;-71
2021/07/26 05:58:50;;;;;;;8.98;5.47;;;17.80;99.90;;;;;;5053290;28;20037;-80
2021/07/26 06:03:46;;;;;;;7.03;6.15;;;17.90;99.90;;;;;;5053079;28;20025;-92
2021/07/26 06:06:12;;;;;;;7.32;5.93;;;17.90;99.90;;;;;;5055323;28;20021;-90
2021/07/26 06:08:37;;;;;;;6.88;5.72;;;17.90;99.90;;;;;;5050294;28;20029;-88
2021/07/26 06:11:03;;;;;;;8.88;5.85;;;18.00;99.90;;;;;;5069353;28;20077;-80
2021/07/26 06:13:29;;;;;;;9.50;6.53;;;18.00;99.90;;;;;;5067807;28;20037;-87
2021/07/26 06:15:55;;;;;;;8.75;6.65;;;18.00;99.90;;;;;;5051157;28;20108;-71
2021/07/26 06:18:21;;;;;;;6.95;5.97;;;18.10;99.90;;;;;;5036735;28;20053;-79
2021/07/26 06:20:46;;;;;;;7.25;6.40;;;18.10;99.90;;;;;;5041465;28;20041;-72
2021/07/26 06:23:12;;;;;;;8.15;6.72;;;18.20;99.90;;;;;;5036838;28;20024;-81
2021/07/26 06:25:37;;;;;;;9.55;7.10;;;18.20;99.90;;;;;;5053050;28;20033;-72
2021/07/26 06:28:03;;;;;;;6.30;5.38;;;18.40;99.90;;;;;;5050635;28;20024;-72
2021/07/26 06:30:29;;;;;;;6.35;5.35;;;18.50;99.90;;;;;;5052129;28;20035;-71
2021/07/26 15:58:44;;;;;;;7.07;5.95;;;26.20;96.60;;;;;;5625372;23;20424;-76
2021/07/26 16:01:10;;;;;;;6.40;5.80;;;26.20;96.70;;;;;;4945406;29;20357;-74
2021/07/26 16:03:36;;;;;;;7.13;6.43;;;26.20;96.60;;;;;;4950890;28;20101;-78
2021/07/26 16:06:02;;;;;;;7.32;6.38;;;26.30;96.70;;;;;;4943138;29;20101;-78
2021/07/26 16:08:28;;;;;;;7.40;6.55;;;26.20;96.20;;;;;;4954872;29;20498;-79
2021/07/26 16:10:54;;;;;;;9.55;6.93;;;25.90;96.80;;;;;;4939133;29;20095;-75
2021/07/26 16:13:20;;;;;;;6.90;6.15;;;25.80;96.40;;;;;;4955611;29;20599;-75
2021/07/26 16:15:48;;;;;;;7.18;6.47;;;25.60;97.50;;;;;;4961697;28;20082;-74
2021/07/26 16:18:14;;;;;;;6.60;6.00;;;26.10;96.60;;;;;;4960468;28;20070;-74
2021/07/26 16:20:43;;;;;;;6.60;5.90;;;27.90;94.40;;;;;;4938287;29;20522;-74
2021/07/26 16:23:11;;;;;;;6.53;5.82;;;29.60;91.70;;;;;;4956123;29;20114;-78
2021/07/26 16:25:37;;;;;;;6.30;5.10;;;31.10;89.30;;;;;;4939394;29;20019;-72
2021/07/26 16:28:03;;;;;;;5.10;4.60;;;32.20;82.30;;;;;;4938123;29;20023;-75
2021/07/26 16:30:28;;;;;;;4.15;3.67;;;32.80;78.20;;;;;;4953020;28;20023;-73
2021/07/26 16:32:54;;;;;;;3.95;3.53;;;33.30;75.20;;;;;;4975057;28;20061;-73
2021/07/26 16:35:20;;;;;;;4.43;3.83;;;34.00;73.10;;;;;;4955000;28;20011;-75
2021/07/26 16:37:45;;;;;;;3.42;3.13;;;34.70;68.30;;;;;;4958246;28;20031;-74
2021/07/26 16:40:12;;;;;;;3.55;3.25;;;35.10;64.10;;;;;;4957158;28;20117;-76
2021/07/26 16:42:38;;;;;;;3.35;3.05;;;35.30;61.00;;;;;;4943407;29;20035;-72
2021/07/26 16:45:05;;;;;;;2.95;2.63;;;35.40;58.50;;;;;;4957186;28;20388;-72
2021/07/26 16:47:31;;;;;;;3.22;2.80;;;34.90;56.90;;;;;;4938783;29;20110;-72
2021/07/26 16:49:57;;;;;;;2.17;1.98;;;34.60;57.10;;;;;;4939506;29;20530;-85
2021/07/26 16:52:22;;;;;;;2.30;2.10;;;34.80;57.40;;;;;;4938646;29;20114;-81
2021/07/26 16:54:49;;;;;;;2.17;2.00;;;34.70;58.20;;;;;;4937744;29;20091;-75
2021/07/26 16:57:14;;;;;;;4.32;2.00;;;34.30;58.50;;;;;;4935875;29;20031;-74
2021/07/26 16:59:40;;;;;;;2.10;1.90;;;34.00;59.10;;;;;;4932186;29;20056;-74
2021/07/26 17:02:06;;;;;;;2.17;1.95;;;33.90;57.90;;;;;;4932058;29;20094;-74
2021/07/26 17:04:32;;;;;;;3.60;2.25;;;34.00;56.70;;;;;;4937391;29;20043;-77
2021/07/26 17:06:58;;;;;;;2.20;2.00;;;34.20;56.10;;;;;;4951186;29;20023;-75
2021/07/26 17:09:23;;;;;;;1.83;1.70;;;34.40;55.70;;;;;;4941367;29;20016;-73
2021/07/26 17:11:49;;;;;;;2.45;2.05;;;34.50;55.80;;;;;;4932561;29;20055;-73
2021/07/26 17:14:15;;;;;;;2.30;2.10;;;34.50;55.30;;;;;;4933552;29;20058;-81
2021/07/26 17:16:44;;;;;;;2.63;2.35;;;34.30;54.90;;;;;;4931912;29;20028;-76
2021/07/26 17:19:10;;;;;;;2.45;2.25;;;34.20;54.00;;;;;;4932885;29;20038;-74
2021/07/26 17:21:37;;;;;;;2.45;2.25;;;33.90;52.70;;;;;;4933748;29;20042;-72
2021/07/26 17:24:06;;;;;;;2.22;2.00;;;33.50;54.60;;;;;;4933210;29;20108;-75
2021/07/26 17:26:33;;;;;;;3.10;2.45;;;33.10;55.20;;;;;;4933884;29;20028;-79
2021/07/26 17:28:59;;;;;;;3.28;2.97;;;32.00;56.80;;;;;;4932168;29;20035;-74
2021/07/26 17:31:25;;;;;;;3.42;3.13;;;31.00;59.10;;;;;;4940857;29;20417;-78
2021/07/26 17:33:51;;;;;;;4.68;4.07;;;29.90;62.50;;;;;;4947260;29;20051;-74
2021/07/26 17:36:17;;;;;;;3.60;3.30;;;28.90;65.20;;;;;;4931190;29;20392;-72
2021/07/26 17:38:43;;;;;;;5.18;4.38;;;28.60;68.00;;;;;;4937602;29;20511;-74
2021/07/26 17:41:09;;;;;;;4.57;4.03;;;28.10;70.30;;;;;;4952194;29;20046;-78
2021/07/26 17:43:36;;;;;;;4.93;4.43;;;27.50;73.40;;;;;;4949109;28;20031;-73
2021/07/26 17:46:02;;;;;;;6.05;5.15;;;27.00;77.00;;;;;;4932928;29;20034;-74
2021/07/26 17:48:28;;;;;;;5.13;4.63;;;26.50;80.20;;;;;;4931243;29;20051;-80
2021/07/26 17:50:54;;;;;;;5.82;5.13;;;26.50;81.60;;;;;;4933824;29;20035;-79
2021/07/26 17:53:20;;;;;;;6.60;5.85;;;26.30;82.70;;;;;;4915797;29;20059;-73
2021/07/26 17:55:46;;;;;;;8.90;6.88;;;25.90;84.30;;;;;;4947111;29;20074;-73
2021/07/26 17:58:11;;;;;;;6.97;6.28;;;25.70;87.00;;;;;;4943264;29;20049;-73
2021/07/26 18:00:37;;;;;;;7.22;6.50;;;25.50;89.00;;;;;;4961948;28;20085;-74
2021/07/26 18:03:04;;;;;;;7.55;6.85;;;25.40;90.20;;;;;;4971315;28;20029;-73
2021/07/26 18:05:29;;;;;;;8.13;6.75;;;25.10;90.70;;;;;;4952198;28;20111;-78
2021/07/26 18:07:56;;;;;;;7.28;6.45;;;25.00;91.80;;;;;;4951001;29;20240;-79
2021/07/26 18:10:22;;;;;;;6.95;6.25;;;24.90;93.10;;;;;;4950811;29;20159;-72
2021/07/26 18:12:50;;;;;;;7.13;6.20;;;24.70;93.50;;;;;;4950514;29;20031;-72
2021/07/26 18:15:16;;;;;;;12.02;8.32;;;24.50;94.30;;;;;;4950682;29;20427;-73
2021/07/26 18:17:42;;;;;;;8.60;7.32;;;24.30;95.40;;;;;;4951322;29;20023;-74
2021/07/26 18:20:11;;;;;;;8.13;7.32;;;24.00;96.10;;;;;;4947245;28;20051;-74
2021/07/26 18:22:38;;;;;;;7.97;7.20;;;23.70;97.20;;;;;;4969533;28;20810;-83
2021/07/26 18:25:04;;;;;;;9.18;8.30;;;23.40;98.10;;;;;;4971054;28;20029;-73
2021/07/26 18:27:30;;;;;;;9.52;8.70;;;23.00;99.40;;;;;;4970343;28;20663;-76
2021/07/26 18:29:56;;;;;;;9.57;8.68;;;22.80;99.90;;;;;;4953307;28;20113;-77
2021/07/26 18:32:21;;;;;;;10.63;9.48;;;22.50;99.90;;;;;;4970598;28;20093;-82
2021/07/26 18:34:47;;;;;;;10.65;9.60;;;22.30;99.90;;;;;;4966950;28;20027;-73
2021/07/26 18:37:13;;;;;;;11.45;10.35;;;22.10;99.90;;;;;;4967500;28;20364;-80
2021/07/26 18:39:39;;;;;;;11.02;9.93;;;21.90;99.90;;;;;;4952872;28;20027;-80
2021/07/26 18:42:06;;;;;;;11.32;10.27;;;21.70;99.90;;;;;;4969974;28;20041;-72
2021/07/26 18:44:32;;;;;;;12.50;10.63;;;21.50;99.90;;;;;;4952590;28;20027;-72
2021/07/26 18:46:58;;;;;;;10.55;9.55;;;21.40;99.90;;;;;;4971095;28;20061;-72
2021/07/26 18:49:24;;;;;;;12.38;11.18;;;21.20;99.90;;;;;;4968125;28;20066;-75
2021/07/26 18:51:49;;;;;;;11.30;10.20;;;21.10;99.90;;;;;;4956690;28;20035;-73
2021/07/26 18:54:15;;;;;;;13.07;11.88;;;21.00;99.90;;;;;;4950076;28;20035;-72
2021/07/26 18:56:41;;;;;;;11.82;10.63;;;20.90;99.90;;;;;;4950133;29;20447;-72
2021/07/26 18:59:06;;;;;;;11.98;10.82;;;20.80;99.90;;;;;;4953620;28;20049;-74
2021/07/26 19:01:33;;;;;;;13.63;12.23;;;20.80;99.90;;;;;;4963836;28;20073;-72
2021/07/26 19:03:59;;;;;;;12.10;10.90;;;20.80;99.90;;;;;;4969416;28;20035;-72
2021/07/26 19:06:24;;;;;;;13.27;11.98;;;20.70;99.90;;;;;;4940332;28;20019;-71
2021/07/26 19:08:50;;;;;;;12.40;11.20;;;20.70;99.90;;;;;;4950023;29;20027;-71
2021/07/26 19:11:16;;;;;;;13.68;12.20;;;20.70;99.90;;;;;;4956989;28;20038;-72
2021/07/26 19:13:42;;;;;;;12.25;11.05;;;20.60;99.90;;;;;;4943386;29;20027;-72
2021/07/26 19:16:07;;;;;;;11.35;10.15;;;20.60;99.90;;;;;;4936501;28;20037;-70
2021/07/26 19:18:33;;;;;;;13.18;11.95;;;20.50;99.90;;;;;;4967197;28;20502;-71
2021/07/26 19:20:59;;;;;;;13.20;12.00;;;20.50;99.90;;;;;;4950597;28;20094;-73
2021/07/26 19:23:25;;;;;;;12.85;11.55;;;20.50;99.90;;;;;;4952758;28;20098;-75
2021/07/26 19:25:51;;;;;;;11.80;10.60;;;20.40;99.90;;;;;;4956941;28;20040;-77
2021/07/26 19:28:16;;;;;;;12.45;11.15;;;20.30;99.90;;;;;;4951538;29;20039;-72
2021/07/26 19:30:42;;;;;;;13.02;11.73;;;20.20;99.90;;;;;;4951709;28;20028;-74
2021/07/26 19:33:08;;;;;;;13.48;12.10;;;20.20;99.90;;;;;;4953388;28;20055;-72
2021/07/26 19:35:34;;;;;;;12.55;11.25;;;20.10;99.90;;;;;;4953152;28;20031;-72
2021/07/26 19:38:02;;;;;;;13.32;12.02;;;20.00;99.90;;;;;;4951834;28;20035;-74
2021/07/26 19:40:28;;;;;;;12.57;11.30;;;20.00;99.90;;;;;;4934266;29;20032;-73
2021/07/26 19:42:53;;;;;;;12.85;11.65;;;19.90;99.90;;;;;;4934092;29;20027;-80
2021/07/26 19:45:19;;;;;;;12.95;11.57;;;19.80;99.90;;;;;;4951332;29;20043;-78
2021/07/26 19:47:44;;;;;;;13.73;12.45;;;19.70;99.90;;;;;;4951596;29;20031;-78
2021/07/26 19:50:11;;;;;;;14.65;13.00;;;19.70;99.90;;;;;;4952142;28;20464;-81
2021/07/26 19:52:37;;;;;;;12.43;11.23;;;19.60;99.90;;;;;;4950975;29;20026;-80
2021/07/26 19:55:03;;;;;;;13.35;12.10;;;19.60;99.90;;;;;;4933779;29;20122;-78
2021/07/26 19:57:28;;;;;;;12.82;11.50;;;19.50;99.90;;;;;;4950854;29;20023;-73
2021/07/26 20:00:00;;;;;;;12.80;11.50;;;19.40;99.90;;;;;;4951608;28;20054;-74
2021/07/26 20:02:25;;;;;;;12.93;11.38;;;19.40;99.90;;;;;;4951539;29;20503;-74
2021/07/26 20:04:51;;;;;;;12.75;11.48;;;19.40;99.90;;;;;;4933650;29;20039;-72
2021/07/26 20:07:16;;;;;;;12.60;11.25;;;19.30;99.90;;;;;;4953506;28;20061;-72
2021/07/26 20:09:42;;;;;;;13.35;11.95;;;19.30;99.90;;;;;;4937566;29;20138;-73
2021/07/26 20:12:08;;;;;;;13.20;11.95;;;19.20;99.90;;;;;;4954225;29;20031;-75
2021/07/26 20:14:33;;;;;;;12.95;11.63;;;19.20;99.90;;;;;;4938576;28;20027;-73
2021/07/26 20:16:59;;;;;;;12.00;10.93;;;19.20;99.90;;;;;;4964889;28;20031;-72
2021/07/26 20:19:24;;;;;;;13.73;12.32;;;19.10;99.90;;;;;;4959135;28;20039;-72
2021/07/26 20:21:50;;;;;;;12.77;11.48;;;19.20;99.90;;;;;;4964503;28;20376;-74
2021/07/26 20:24:15;;;;;;;13.57;12.00;;;19.10;99.90;;;;;;4954153;29;20110;-73
2021/07/26 20:26:41;;;;;;;13.32;12.10;;;19.20;99.90;;;;;;4953690;29;20484;-72
2021/07/26 20:29:07;;;;;;;14.98;13.38;;;19.20;99.90;;;;;;4937032;29;20483;-77
2021/07/26 20:31:33;;;;;;;13.32;12.02;;;19.20;99.90;;;;;;4953581;29;20138;-73
2021/07/26 20:33:58;;;;;;;14.25;12.75;;;19.30;99.90;;;;;;4953837;29;20035;-72
2021/07/26 20:36:25;;;;;;;15.07;13.32;;;19.30;99.90;;;;;;4955633;28;20023;-73
2021/07/26 20:38:50;;;;;;;14.13;12.77;;;19.40;99.90;;;;;;4954142;29;20121;-72
2021/07/26 20:41:17;;;;;;;14.55;13.15;;;19.30;99.90;;;;;;4947200;28;20518;-72
2021/07/26 20:43:42;;;;;;;15.88;14.30;;;19.30;99.90;;;;;;4955918;28;20475;-73
2021/07/26 20:46:08;;;;;;;15.15;13.48;;;19.30;99.90;;;;;;4973694;28;20027;-83
2021/07/26 20:48:34;;;;;;;14.38;13.00;;;19.30;99.90;;;;;;4955261;28;20015;-69
2021/07/26 20:51:00;;;;;;;14.65;13.15;;;19.30;99.90;;;;;;4956449;28;20030;-75
2021/07/26 20:53:25;;;;;;;16.85;14.30;;;19.20;99.90;;;;;;4973356;28;20034;-85
2021/07/26 20:55:51;;;;;;;17.17;15.40;;;19.20;99.90;;;;;;4970799;28;20037;-75
2021/07/26 20:58:17;;;;;;;15.98;14.35;;;19.20;99.90;;;;;;4973379;28;20026;-78
2021/07/26 21:00:43;;;;;;;14.35;12.93;;;19.20;99.90;;;;;;4969632;28;20053;-73
2021/07/26 21:03:09;;;;;;;15.80;14.15;;;19.30;99.90;;;;;;4954260;29;20031;-77
2021/07/26 21:05:36;;;;;;;15.80;14.20;;;19.30;99.90;;;;;;4954958;29;20079;-81
2021/07/26 21:08:02;;;;;;;14.50;13.10;;;19.30;99.90;;;;;;4954442;29;20027;-79
2021/07/26 21:10:28;;;;;;;16.80;15.10;;;19.20;99.90;;;;;;4953965;29;20102;-81
2021/07/26 21:12:54;;;;;;;16.65;14.95;;;19.30;99.90;;;;;;4944705;28;20370;-73
2021/07/26 21:15:33;;;;;;;17.00;15.30;;;19.20;99.90;;;;;;4972002;28;20023;-72
2021/07/26 21:17:58;;;;;;;17.30;15.48;;;19.30;99.90;;;;;;4954810;28;20023;-77
2021/07/26 21:20:25;;;;;;;17.40;15.60;;;19.20;99.90;;;;;;4952782;29;20039;-73
2021/07/26 21:22:51;;;;;;;17.58;15.80;;;19.20;99.90;;;;;;4952938;29;20027;-80
2021/07/26 21:25:17;;;;;;;17.95;16.15;;;19.30;99.90;;;;;;4953166;29;20046;-73
2021/07/26 21:27:43;;;;;;;16.90;15.18;;;19.20;99.90;;;;;;4947279;28;20503;-75
2021/07/26 21:30:10;;;;;;;16.05;14.55;;;19.30;99.90;;;;;;4971495;28;20542;-74
2021/07/26 21:32:36;;;;;;;18.17;16.17;;;19.30;99.90;;;;;;4972404;28;20039;-76
2021/07/26 21:35:01;;;;;;;18.63;16.77;;;19.30;99.90;;;;;;4949535;29;20031;-73
2021/07/26 21:37:27;;;;;;;17.98;16.27;;;19.30;99.90;;;;;;4955285;28;20033;-74
2021/07/26 21:39:53;;;;;;;17.83;15.98;;;19.30;99.90;;;;;;4972210;28;20034;-83
2021/07/26 21:42:18;;;;;;;16.67;15.07;;;19.30;99.90;;;;;;4954694;28;20035;-73
2021/07/26 21:44:44;;;;;;;16.70;15.18;;;19.30;99.90;;;;;;4971485;28;20031;-81
2021/07/26 21:47:09;;;;;;;17.92;16.13;;;19.30;99.90;;;;;;4953248;28;20038;-73
2021/07/26 21:49:36;;;;;;;16.67;15.00;;;19.30;99.90;;;;;;4971275;28;20117;-73
2021/07/26 21:52:03;;;;;;;18.55;15.60;;;19.30;99.90;;;;;;4971564;28;20542;-73
2021/07/26 21:54:28;;;;;;;16.88;15.07;;;19.30;99.90;;;;;;4961954;28;20034;-73
2021/07/26 21:56:54;;;;;;;18.17;16.27;;;19.30;99.90;;;;;;4952138;29;20023;-73
2021/07/26 21:59:19;;;;;;;17.38;15.57;;;19.30;99.90;;;;;;4952140;29;20569;-72
2021/07/26 22:01:45;;;;;;;17.05;15.27;;;19.30;99.90;;;;;;4956115;28;20035;-75
2021/07/26 22:04:11;;;;;;;18.27;16.38;;;19.30;99.90;;;;;;4949869;28;20526;-73
2021/07/26 22:06:37;;;;;;;18.10;15.75;;;19.30;99.90;;;;;;4959739;28;20027;-72